createdAt,value
2019-03-24T16:03:11.137Z,83.20
2019-03-24T16:05:45.081Z,78.40
2019-03-24T16:08:13.780Z,78.30
2019-03-24T16:10:41.612Z,77.50
2019-03-24T16:13:09.405Z,77.30
2019-03-24T16:15:37.301Z,77.30
2019-03-24T16:18:05.926Z,77.40
2019-03-24T16:20:33.776Z,77.70
2019-03-24T16:23:01.445Z,76.10
2019-03-24T16:25:29.266Z,75.90
2019-03-24T16:27:57.090Z,76.10
2019-03-24T16:30:24.878Z,75.40
2019-03-24T16:32:52.804Z,76.30
2019-03-24T16:35:21.142Z,75.40
2019-03-24T16:37:48.848Z,75.00
2019-03-24T16:40:17.001Z,75.10
2019-03-24T16:42:44.723Z,75.40
2019-03-24T16:45:12.920Z,76.30
2019-03-24T16:47:40.664Z,75.60
2019-03-24T16:50:08.885Z,75.10
2019-03-24T16:52:36.937Z,74.80
2019-03-24T16:55:06.206Z,73.90
2019-03-24T16:57:35.601Z,74.90
2019-03-24T17:00:30.385Z,73.80
2019-03-24T17:03:28.218Z,73.70
2019-03-24T17:14:59.144Z,73.20
2019-03-24T17:17:26.901Z,73.20
2019-03-24T17:19:54.756Z,72.40
2019-03-24T17:22:22.646Z,72.20
2019-03-24T17:24:50.495Z,71.00
2019-03-24T17:27:18.260Z,71.90
2019-03-24T17:29:45.999Z,71.40
2019-03-24T17:32:14.076Z,70.90
2019-03-24T17:34:41.871Z,71.20
2019-03-24T17:37:09.561Z,70.70
2019-03-24T17:39:37.303Z,71.00
2019-03-24T17:42:05.053Z,70.80
2019-03-24T17:44:32.720Z,70.60
2019-03-24T17:47:00.483Z,70.70
2019-03-24T17:49:28.223Z,71.00
2019-03-24T17:52:00.601Z,70.30
2019-03-24T17:54:25.486Z,70.20
2019-03-24T17:56:53.754Z,70.70
2019-03-24T17:59:21.651Z,69.20
2019-03-24T18:01:50.270Z,66.80
2019-03-24T18:04:24.869Z,66.00
2019-03-24T18:06:47.602Z,68.00
2019-03-24T18:09:16.181Z,66.30
2019-03-24T18:11:45.332Z,65.40
2019-03-24T18:14:15.007Z,65.70
2019-03-24T18:16:42.971Z,66.90
2019-03-24T18:19:11.638Z,66.30
2019-03-24T18:21:39.892Z,66.30
2019-03-24T18:24:08.245Z,64.90
2019-03-24T18:26:36.928Z,65.30
2019-03-24T18:29:05.785Z,65.50
2019-03-24T18:31:34.182Z,65.50
2019-03-24T18:34:03.435Z,65.10
2019-03-24T18:36:32.110Z,65.20
